createdAt,value
2019-05-28T00:01:18.904Z,88.00
2019-05-28T00:03:40.266Z,87.00
2019-05-28T00:06:01.600Z,89.10
2019-05-28T00:08:23.289Z,86.70
2019-05-28T00:10:44.622Z,85.30
2019-05-28T00:13:05.976Z,84.70
2019-05-28T00:15:27.313Z,85.60
2019-05-28T00:17:49.010Z,85.40
2019-05-28T00:20:10.756Z,85.40
2019-05-28T00:22:32.109Z,84.20
2019-05-28T00:24:53.497Z,85.30
2019-05-28T00:27:14.933Z,86.00
2019-05-28T00:29:36.182Z,84.90
2019-05-28T00:31:57.517Z,84.00
2019-05-28T00:34:18.901Z,84.40
2019-05-28T00:36:40.324Z,84.20
2019-05-28T00:39:01.659Z,87.30
2019-05-28T00:41:24.489Z,87.00
2019-05-28T00:43:46.150Z,87.50
2019-05-28T00:46:07.499Z,86.80
2019-05-28T00:48:28.853Z,87.50
2019-05-28T00:50:50.498Z,88.00
2019-05-28T00:53:11.821Z,87.50
2019-05-28T00:55:54.946Z,87.80
2019-05-28T00:58:17.198Z,88.30
2019-05-28T01:00:44.260Z,87.40
2019-05-28T01:03:05.862Z,87.10
2019-05-28T01:05:27.206Z,88.10
2019-05-28T01:07:48.524Z,87.30
2019-05-28T01:10:10.286Z,86.90
2019-05-28T01:12:31.613Z,88.50
2019-05-28T01:14:52.957Z,88.60
2019-05-28T01:17:14.271Z,89.80
2019-05-28T01:19:35.735Z,88.80
2019-05-28T01:21:57.080Z,89.50
2019-05-28T01:24:18.420Z,89.20
2019-05-28T01:26:39.763Z,88.50
2019-05-28T01:29:01.111Z,89.20
2019-05-28T01:31:22.557Z,88.30
2019-05-28T01:33:43.918Z,87.90
2019-05-28T01:36:05.259Z,88.00
2019-05-28T01:38:26.618Z,86.80
2019-05-28T01:40:47.948Z,86.70
2019-05-28T01:43:09.298Z,86.40
2019-05-28T01:45:30.645Z,86.60
2019-05-28T01:47:52.141Z,86.30
2019-05-28T01:50:13.721Z,86.20
2019-05-28T01:52:35.174Z,86.70
2019-05-28T01:54:56.541Z,86.50
2019-05-28T01:57:17.958Z,86.80
2019-05-28T01:59:39.307Z,87.30
2019-05-28T02:02:00.666Z,87.40
2019-05-28T02:04:22.017Z,87.90
2019-05-28T02:06:43.661Z,87.90
2019-05-28T02:09:05.926Z,88.90
2019-05-28T02:11:27.612Z,87.30
2019-05-28T02:13:48.979Z,88.90
2019-05-28T02:16:10.573Z,87.20
2019-05-28T02:18:31.904Z,88.40
2019-05-28T02:20:53.257Z,89.30
2019-05-28T02:23:14.692Z,88.10
2019-05-28T02:25:36.146Z,88.20
2019-05-28T02:27:57.481Z,88.70
2019-05-28T02:30:19.844Z,88.70
2019-05-28T02:32:41.207Z,89.40
2019-05-28T02:35:04.860Z,89.60
2019-05-28T02:37:26.386Z,88.30
2019-05-28T02:39:48.038Z,89.10
2019-05-28T02:42:09.359Z,89.20
2019-05-28T02:44:30.709Z,88.80
2019-05-28T02:46:52.261Z,88.80
2019-05-28T02:49:13.861Z,90.00
2019-05-28T02:51:35.417Z,89.60
2019-05-28T02:54:16.723Z,89.50
2019-05-28T02:56:38.669Z,89.40
2019-05-28T02:59:00.396Z,90.00
2019-05-28T03:01:22.651Z,90.00
2019-05-28T03:03:47.005Z,89.40
2019-05-28T03:06:12.326Z,89.70
2019-05-28T03:08:33.866Z,89.70
2019-05-28T03:11:03.182Z,89.30
2019-05-28T03:13:18.676Z,89.40
2019-05-28T03:15:43.724Z,89.30
2019-05-28T03:18:07.557Z,89.40
2019-05-28T03:20:30.211Z,89.40
2019-05-28T03:22:52.537Z,88.70
2019-05-28T03:25:14.085Z,89.10
2019-05-28T03:27:35.473Z,89.20
2019-05-28T03:29:56.762Z,89.50
2019-05-28T03:32:18.138Z,89.10
2019-05-28T03:34:42.078Z,89.50
2019-05-28T03:37:03.620Z,88.30
2019-05-28T03:39:25.633Z,89.70
2019-05-28T03:41:47.008Z,89.00
2019-05-28T03:44:08.353Z,89.50
2019-05-28T03:46:29.937Z,89.00
2019-05-28T03:48:51.573Z,88.30
2019-05-28T03:51:12.962Z,88.70
2019-05-28T03:53:34.292Z,88.80
2019-05-28T03:55:55.640Z,89.20
2019-05-28T03:58:16.986Z,89.60
2019-05-28T04:00:38.357Z,89.30
2019-05-28T04:03:00.921Z,89.40
2019-05-28T04:05:22.185Z,89.40
2019-05-28T04:07:43.536Z,89.40
2019-05-28T04:10:04.896Z,89.50
2019-05-28T04:12:26.237Z,89.40
2019-05-28T04:14:47.574Z,89.50
2019-05-28T04:17:09.200Z,89.70
2019-05-28T04:19:30.558Z,89.40
2019-05-28T04:21:51.945Z,90.00
2019-05-28T04:24:13.293Z,89.60
2019-05-28T04:26:34.723Z,89.40
2019-05-28T04:28:57.320Z,89.90
2019-05-28T04:31:18.962Z,90.10
2019-05-28T04:33:40.333Z,90.10
2019-05-28T04:36:02.005Z,90.20
2019-05-28T04:38:23.386Z,90.20
2019-05-28T04:40:50.969Z,90.10
2019-05-28T04:43:12.363Z,89.60
2019-05-28T04:45:33.706Z,89.70
2019-05-28T04:47:55.084Z,89.70
2019-05-28T04:50:16.770Z,89.60
2019-05-28T04:52:38.108Z,89.60
2019-05-28T04:55:00.461Z,89.30
2019-05-28T04:57:21.946Z,89.70
2019-05-28T04:59:43.346Z,89.80
2019-05-28T05:02:04.763Z,89.70
2019-05-28T05:04:26.206Z,89.60
2019-05-28T05:06:47.574Z,89.30
2019-05-28T05:09:08.914Z,89.50
2019-05-28T05:11:30.421Z,89.20
2019-05-28T05:13:51.878Z,89.40
2019-05-28T05:16:13.738Z,89.50
2019-05-28T05:18:35.133Z,89.50
2019-05-28T05:20:56.505Z,90.00
2019-05-28T05:23:37.750Z,90.20
2019-05-28T05:25:59.101Z,89.90
2019-05-28T05:28:22.906Z,89.80
2019-05-28T05:30:44.281Z,89.60
2019-05-28T05:33:19.340Z,90.00
2019-05-28T05:35:28.789Z,89.80
2019-05-28T05:37:50.389Z,89.50
2019-05-28T05:40:12.817Z,89.70
2019-05-28T05:42:34.269Z,90.20
2019-05-28T05:44:55.814Z,90.10
2019-05-28T05:47:17.222Z,89.90
2019-05-28T05:49:38.547Z,90.10
2019-05-28T05:52:04.596Z,90.00
2019-05-28T05:54:25.987Z,90.00
2019-05-28T05:56:47.455Z,89.80
2019-05-28T05:59:08.853Z,90.00
2019-05-28T06:01:30.218Z,89.90
2019-05-28T06:03:51.631Z,89.60
2019-05-28T06:06:12.967Z,90.00
2019-05-28T06:08:37.059Z,89.80
2019-05-28T06:10:57.557Z,89.70
2019-05-28T06:13:18.945Z,89.90
2019-05-28T06:15:41.020Z,90.00
2019-05-28T06:18:02.738Z,90.00
2019-05-28T06:20:24.174Z,89.80
2019-05-28T06:22:45.553Z,89.80
2019-05-28T06:25:07.245Z,90.00
2019-05-28T06:27:28.589Z,89.60
2019-05-28T06:29:50.092Z,89.40
2019-05-28T06:32:11.431Z,89.10
2019-05-28T06:34:33.011Z,89.10
2019-05-28T06:36:55.484Z,88.70
2019-05-28T06:39:16.839Z,88.20
2019-05-28T06:41:38.203Z,87.80
2019-05-28T06:43:59.557Z,87.30
2019-05-28T06:46:20.918Z,87.80
2019-05-28T06:48:42.299Z,87.70
2019-05-28T06:51:03.901Z,87.20
2019-05-28T06:53:25.343Z,87.00
2019-05-28T06:55:47.836Z,85.50
2019-05-28T06:58:09.370Z,86.40
2019-05-28T07:00:30.726Z,84.70
2019-05-28T07:02:52.422Z,85.50
2019-05-28T07:05:14.582Z,85.00
2019-05-28T07:07:35.932Z,85.30
2019-05-28T07:09:57.265Z,85.30
2019-05-28T07:12:18.646Z,86.30
2019-05-28T07:14:40.005Z,85.10
2019-05-28T07:17:01.370Z,83.50
2019-05-28T07:19:25.030Z,83.10
2019-05-28T07:21:46.012Z,83.00
2019-05-28T07:24:07.358Z,82.90
2019-05-28T07:26:28.944Z,83.30
2019-05-28T07:28:52.209Z,83.40
2019-05-28T07:31:13.541Z,83.00
2019-05-28T07:33:35.897Z,81.40
2019-05-28T07:35:58.488Z,82.60
2019-05-28T07:38:20.127Z,80.60
2019-05-28T07:40:42.103Z,79.60
2019-05-28T07:43:05.257Z,80.70
2019-05-28T07:45:26.582Z,80.00
2019-05-28T07:47:47.923Z,80.60
2019-05-28T07:50:10.609Z,79.60
2019-05-28T07:52:32.068Z,78.80
2019-05-28T07:54:53.429Z,79.00
2019-05-28T07:57:14.782Z,78.80
2019-05-28T07:59:36.172Z,79.60
2019-05-28T08:01:57.518Z,78.60
2019-05-28T08:04:18.925Z,79.20
2019-05-28T08:06:53.822Z,79.80
2019-05-28T08:09:06.020Z,79.30
2019-05-28T08:11:27.501Z,78.00
2019-05-28T08:13:52.290Z,79.10
2019-05-28T08:16:18.674Z,77.70
2019-05-28T08:18:35.539Z,77.00
2019-05-28T08:20:59.637Z,76.70
2019-05-28T08:23:21.103Z,73.70
2019-05-28T08:25:47.156Z,75.40
2019-05-28T08:28:19.371Z,75.80
2019-05-28T08:30:29.309Z,75.70
2019-05-28T08:32:52.334Z,75.40
2019-05-28T08:35:13.698Z,72.30
2019-05-28T08:37:35.145Z,73.50
2019-05-28T08:39:56.565Z,73.90
2019-05-28T08:42:20.913Z,75.40
2019-05-28T08:44:41.126Z,74.70
2019-05-28T08:47:02.496Z,73.90
2019-05-28T08:49:24.302Z,74.20
2019-05-28T08:51:45.693Z,74.20
2019-05-28T08:54:21.533Z,73.30
2019-05-28T08:56:42.876Z,71.40
2019-05-28T08:59:04.249Z,69.70
2019-05-28T09:01:27.114Z,71.60
2019-05-28T09:03:48.611Z,72.40
2019-05-28T09:06:10.038Z,71.10
2019-05-28T09:08:39.294Z,72.40
2019-05-28T09:10:55.149Z,71.00
2019-05-28T09:13:16.488Z,71.80
2019-05-28T09:15:38.557Z,71.00
2019-05-28T09:17:59.933Z,70.60
2019-05-28T09:20:21.425Z,70.30
2019-05-28T09:22:42.789Z,68.90
2019-05-28T09:25:05.463Z,68.60
2019-05-28T09:27:28.226Z,65.90
2019-05-28T09:29:50.437Z,68.30
2019-05-28T09:32:11.798Z,66.60
2019-05-28T09:34:33.195Z,65.40
2019-05-28T09:36:56.782Z,65.80
2019-05-28T09:39:18.866Z,63.00
2019-05-28T09:41:40.418Z,64.00
2019-05-28T09:44:14.853Z,64.40
2019-05-28T09:46:36.247Z,64.30
2019-05-28T09:48:57.857Z,62.20
2019-05-28T09:51:24.037Z,63.00
2019-05-28T09:53:48.332Z,64.70
2019-05-28T09:56:09.724Z,64.50
2019-05-28T09:58:31.300Z,63.30
2019-05-28T10:00:58.301Z,60.80
2019-05-28T10:03:16.899Z,61.80
2019-05-28T10:05:38.402Z,61.00
2019-05-28T10:08:00.503Z,60.10
2019-05-28T10:10:22.071Z,63.30
2019-05-28T10:12:44.680Z,63.00
2019-05-28T10:15:06.696Z,63.30
2019-05-28T10:17:28.085Z,60.20
2019-05-28T10:19:51.823Z,62.50
2019-05-28T10:22:14.194Z,59.30
2019-05-28T10:24:35.538Z,56.90
2019-05-28T10:26:57.079Z,57.80
2019-05-28T10:29:18.530Z,58.90
2019-05-28T10:31:39.886Z,60.40
2019-05-28T10:34:01.305Z,60.00
2019-05-28T10:36:35.469Z,59.80
2019-05-28T10:38:45.930Z,58.80
2019-05-28T10:41:08.573Z,59.20
2019-05-28T10:43:29.922Z,55.90
2019-05-28T10:45:51.374Z,56.30
2019-05-28T10:48:12.833Z,56.60
2019-05-28T10:50:34.593Z,58.30
2019-05-28T10:52:56.050Z,58.00
2019-05-28T10:55:17.593Z,58.80
2019-05-28T10:57:39.021Z,57.20
2019-05-28T11:00:00.856Z,58.50
2019-05-28T11:02:22.219Z,58.20
2019-05-28T11:04:46.405Z,56.10
2019-05-28T11:07:07.957Z,57.60
2019-05-28T11:09:33.245Z,57.80
2019-05-28T11:11:57.002Z,58.10
2019-05-28T11:14:18.353Z,57.70
2019-05-28T11:16:39.697Z,56.50
2019-05-28T11:19:01.182Z,57.10
2019-05-28T11:21:22.566Z,57.60
2019-05-28T11:23:46.950Z,57.50
2019-05-28T11:26:11.095Z,56.30
2019-05-28T11:28:32.890Z,56.20
2019-05-28T11:30:54.292Z,54.30
2019-05-28T11:33:17.424Z,53.40
2019-05-28T11:35:38.918Z,54.10
2019-05-28T11:38:00.363Z,54.30
2019-05-28T11:40:22.465Z,55.60
2019-05-28T11:42:43.825Z,53.90
2019-05-28T11:45:08.118Z,53.00
2019-05-28T11:47:30.252Z,53.10
2019-05-28T11:49:51.587Z,52.70
2019-05-28T11:52:12.942Z,54.00
2019-05-28T11:54:34.304Z,53.40
2019-05-28T11:56:55.838Z,53.30
2019-05-28T11:59:17.305Z,54.20
2019-05-28T12:01:39.144Z,54.50
2019-05-28T12:04:16.867Z,54.60
2019-05-28T12:06:38.559Z,53.30
2019-05-28T12:09:00.476Z,52.60
2019-05-28T12:11:21.851Z,53.30
2019-05-28T12:13:45.492Z,52.30
2019-05-28T12:16:15.834Z,51.20
2019-05-28T12:18:37.348Z,49.50
2019-05-28T12:20:58.773Z,51.80
2019-05-28T12:23:23.767Z,49.80
2019-05-28T12:25:45.193Z,46.30
2019-05-28T12:28:10.736Z,49.80
2019-05-28T12:30:34.181Z,49.50
2019-05-28T12:32:57.470Z,49.40
2019-05-28T12:35:29.413Z,48.60
2019-05-28T12:37:50.279Z,45.20
2019-05-28T12:40:12.019Z,46.30
2019-05-28T12:42:33.451Z,46.40
2019-05-28T12:45:10.287Z,43.90
2019-05-28T12:48:04.600Z,46.80
2019-05-28T12:50:20.583Z,45.60
2019-05-28T12:52:57.510Z,45.30
2019-05-28T12:55:20.358Z,46.40
2019-05-28T12:57:48.765Z,46.10
2019-05-28T13:00:15.696Z,46.60
2019-05-28T13:02:38.945Z,46.20
2019-05-28T13:05:00.413Z,45.80
2019-05-28T13:07:25.677Z,45.90
2019-05-28T13:09:49.247Z,46.00
2019-05-28T13:12:10.793Z,44.70
2019-05-28T13:14:32.643Z,46.20
2019-05-28T13:16:53.975Z,44.00
2019-05-28T13:19:15.373Z,44.40
2019-05-28T13:21:36.944Z,43.30
2019-05-28T13:23:58.331Z,42.10
2019-05-28T13:26:19.676Z,42.20
2019-05-28T13:28:41.042Z,43.40
2019-05-28T13:31:02.776Z,43.10
2019-05-28T13:33:25.442Z,41.20
2019-05-28T13:35:46.802Z,41.60
2019-05-28T13:38:25.665Z,42.80
2019-05-28T13:40:32.906Z,43.00
2019-05-28T13:42:54.251Z,43.20
2019-05-28T13:45:16.325Z,44.80
2019-05-28T13:47:37.753Z,43.40
2019-05-28T13:49:59.109Z,44.10
2019-05-28T13:52:20.428Z,44.40
2019-05-28T13:54:41.760Z,44.20
2019-05-28T13:57:03.194Z,44.00
2019-05-28T13:59:24.665Z,45.10
2019-05-28T14:01:46.011Z,43.90
2019-05-28T14:04:07.350Z,44.00
2019-05-28T14:06:28.745Z,44.30
2019-05-28T14:08:50.063Z,42.70
2019-05-28T14:11:11.434Z,42.40
2019-05-28T14:13:33.630Z,41.50
2019-05-28T14:15:54.982Z,41.80
2019-05-28T14:18:16.358Z,42.70
2019-05-28T14:20:37.671Z,42.50
2019-05-28T14:22:59.289Z,42.10
2019-05-28T14:25:20.629Z,42.40
2019-05-28T14:27:41.975Z,42.20
2019-05-28T14:30:08.539Z,43.20
2019-05-28T14:32:30.004Z,42.70
2019-05-28T14:34:52.563Z,43.60
2019-05-28T14:37:14.326Z,44.70
2019-05-28T14:39:41.200Z,45.90
2019-05-28T14:41:58.898Z,46.00
2019-05-28T14:44:20.235Z,46.20
2019-05-28T14:46:41.594Z,45.60
2019-05-28T14:49:07.296Z,46.70
2019-05-28T14:51:26.302Z,46.20
2019-05-28T14:53:47.639Z,44.00
2019-05-28T14:56:09.318Z,45.50
2019-05-28T14:58:30.631Z,45.50
2019-05-28T15:00:52.035Z,46.60
2019-05-28T15:03:13.426Z,45.30
2019-05-28T15:05:34.754Z,45.60
2019-05-28T15:07:56.123Z,45.30
2019-05-28T15:10:18.774Z,44.80
2019-05-28T15:12:40.253Z,44.50
2019-05-28T15:15:02.812Z,43.60
2019-05-28T15:17:26.593Z,44.40
2019-05-28T15:19:47.550Z,44.70
2019-05-28T15:22:08.978Z,43.60
2019-05-28T15:24:30.381Z,43.60
2019-05-28T15:26:51.968Z,43.10
2019-05-28T15:29:13.325Z,43.80
2019-05-28T15:31:35.667Z,42.20
2019-05-28T15:33:57.030Z,43.10
2019-05-28T15:36:18.431Z,43.00
2019-05-28T15:38:39.820Z,41.10
2019-05-28T15:41:01.182Z,40.90
2019-05-28T15:43:22.530Z,42.40
2019-05-28T15:45:44.198Z,42.60
2019-05-28T15:48:05.679Z,42.80
2019-05-28T15:50:27.100Z,41.90
2019-05-28T15:52:48.522Z,42.10
2019-05-28T15:55:10.333Z,41.30
2019-05-28T15:57:31.872Z,41.50
2019-05-28T15:59:53.250Z,41.80
2019-05-28T16:02:15.710Z,42.00
2019-05-28T16:04:38.446Z,40.70
2019-05-28T16:06:59.934Z,40.30
2019-05-28T16:09:21.291Z,39.90
2019-05-28T16:11:42.652Z,40.10
2019-05-28T16:14:04.503Z,40.90
2019-05-28T16:16:26.967Z,41.90
2019-05-28T16:18:48.325Z,41.30
2019-05-28T16:21:09.685Z,40.60
2019-05-28T16:23:31.065Z,40.00
2019-05-28T16:25:52.415Z,40.60
2019-05-28T16:28:13.949Z,40.30
2019-05-28T16:30:36.062Z,40.90
2019-05-28T16:32:57.653Z,41.20
2019-05-28T16:35:19.688Z,40.60
2019-05-28T16:37:41.060Z,41.30
2019-05-28T16:40:14.962Z,41.50
2019-05-28T16:42:28.087Z,42.00
2019-05-28T16:44:49.453Z,42.80
2019-05-28T16:47:17.864Z,43.00
2019-05-28T16:49:34.117Z,42.40
2019-05-28T16:51:55.480Z,42.80
2019-05-28T16:54:19.418Z,42.90
2019-05-28T16:56:40.262Z,43.30
2019-05-28T16:59:01.618Z,43.40
2019-05-28T17:01:23.521Z,43.70
2019-05-28T17:03:44.871Z,44.00
2019-05-28T17:06:06.248Z,44.00
2019-05-28T17:08:28.306Z,43.80
2019-05-28T17:10:49.655Z,44.20
2019-05-28T17:13:12.302Z,44.20
2019-05-28T17:15:33.626Z,43.20
2019-05-28T17:17:54.973Z,43.70
2019-05-28T17:20:17.087Z,44.00
2019-05-28T17:22:38.401Z,43.80
2019-05-28T17:25:00.954Z,44.20
2019-05-28T17:27:22.694Z,44.00
2019-05-28T17:29:44.141Z,44.60
2019-05-28T17:32:05.545Z,44.50
2019-05-28T17:34:26.929Z,44.20
2019-05-28T17:36:48.355Z,44.40
2019-05-28T17:39:09.765Z,44.40
2019-05-28T17:41:31.215Z,44.40
2019-05-28T17:43:52.578Z,44.60
2019-05-28T17:46:13.922Z,44.90
2019-05-28T17:48:35.443Z,45.20
2019-05-28T17:50:56.791Z,44.70
2019-05-28T17:53:18.163Z,45.00
2019-05-28T17:55:39.497Z,44.90
2019-05-28T17:58:00.877Z,45.20
2019-05-28T18:00:22.234Z,46.10
2019-05-28T18:02:43.854Z,45.80
2019-05-28T18:05:06.335Z,46.40
2019-05-28T18:07:27.996Z,46.60
2019-05-28T18:09:51.788Z,46.50
2019-05-28T18:12:13.177Z,46.00
2019-05-28T18:14:34.466Z,46.60
2019-05-28T18:16:55.859Z,46.80
2019-05-28T18:19:17.252Z,46.50
2019-05-28T18:21:38.648Z,46.90
2019-05-28T18:24:00.002Z,47.10
2019-05-28T18:26:21.379Z,47.60
2019-05-28T18:28:42.740Z,47.90
2019-05-28T18:31:04.070Z,48.20
2019-05-28T18:33:25.566Z,48.50
2019-05-28T18:35:47.262Z,48.60
2019-05-28T18:38:08.918Z,48.90
2019-05-28T18:40:30.417Z,49.00
2019-05-28T18:42:51.831Z,49.50
2019-05-28T18:45:13.663Z,49.70
2019-05-28T18:47:35.330Z,50.20
2019-05-28T18:50:02.687Z,50.20
2019-05-28T18:52:21.392Z,49.90
2019-05-28T18:54:42.757Z,50.60
2019-05-28T18:57:04.876Z,50.60
2019-05-28T18:59:26.422Z,50.90
2019-05-28T19:01:47.987Z,51.30
2019-05-28T19:04:09.668Z,51.90
2019-05-28T19:06:31.158Z,51.90
2019-05-28T19:08:52.619Z,52.30
2019-05-28T19:11:13.975Z,52.40
2019-05-28T19:13:35.381Z,52.50
2019-05-28T19:15:56.788Z,52.60
2019-05-28T19:18:19.335Z,52.90
2019-05-28T19:20:42.975Z,53.60
2019-05-28T19:23:06.499Z,53.10
2019-05-28T19:25:29.925Z,53.50
2019-05-28T19:27:51.426Z,53.80
2019-05-28T19:30:13.411Z,53.70
2019-05-28T19:32:35.051Z,53.70
2019-05-28T19:34:56.662Z,53.90
2019-05-28T19:37:18.202Z,53.40
2019-05-28T19:39:40.404Z,53.90
2019-05-28T19:42:01.714Z,54.60
2019-05-28T19:44:23.141Z,54.90
2019-05-28T19:46:44.410Z,54.60
2019-05-28T19:49:06.144Z,55.20
2019-05-28T19:51:27.719Z,55.40
2019-05-28T19:53:49.047Z,55.00
2019-05-28T19:56:10.250Z,55.10
2019-05-28T19:58:31.683Z,55.40
2019-05-28T20:00:52.977Z,55.00
2019-05-28T20:03:14.220Z,55.00
2019-05-28T20:05:35.454Z,55.50
2019-05-28T20:07:56.694Z,55.50
2019-05-28T20:10:18.491Z,55.80
2019-05-28T20:12:39.773Z,55.80
2019-05-28T20:15:01.190Z,56.10
2019-05-28T20:17:22.475Z,56.00
2019-05-28T20:19:43.767Z,56.50
2019-05-28T20:22:04.977Z,57.50
2019-05-28T20:24:26.186Z,56.70
2019-05-28T20:26:47.664Z,57.50
2019-05-28T20:29:09.244Z,58.30
2019-05-28T20:31:30.524Z,56.50
2019-05-28T20:33:51.798Z,57.60
2019-05-28T20:36:13.119Z,57.20
2019-05-28T20:38:34.694Z,58.00
2019-05-28T20:40:55.927Z,58.70
2019-05-28T20:43:17.140Z,58.20
2019-05-28T20:45:38.450Z,58.50
2019-05-28T20:48:00.479Z,58.90
2019-05-28T20:50:21.882Z,59.00
2019-05-28T20:52:43.073Z,59.20
2019-05-28T20:55:04.982Z,59.30
2019-05-28T20:57:26.293Z,59.80
2019-05-28T20:59:47.494Z,59.90
2019-05-28T21:02:09.071Z,59.20
2019-05-28T21:04:30.814Z,59.40
2019-05-28T21:06:52.176Z,60.70
2019-05-28T21:09:13.486Z,59.50
2019-05-28T21:11:34.785Z,59.80
2019-05-28T21:13:56.763Z,60.00
2019-05-28T21:16:18.049Z,60.00
2019-05-28T21:18:39.282Z,60.20
2019-05-28T21:21:00.487Z,59.50
2019-05-28T21:23:21.989Z,60.70
2019-05-28T21:25:43.214Z,60.70
2019-05-28T21:28:04.416Z,60.70
2019-05-28T21:30:25.638Z,60.40
2019-05-28T21:32:46.950Z,61.10
2019-05-28T21:35:08.978Z,61.90
2019-05-28T21:37:30.201Z,60.60
2019-05-28T21:39:51.452Z,63.00
2019-05-28T21:42:12.727Z,62.20
2019-05-28T21:44:33.914Z,61.60
2019-05-28T21:46:56.239Z,61.90
2019-05-28T21:49:17.645Z,61.70
2019-05-28T21:51:39.162Z,62.70
2019-05-28T21:54:01.533Z,62.90
2019-05-28T21:56:23.005Z,62.30
2019-05-28T21:58:44.218Z,62.50
2019-05-28T22:01:18.251Z,62.60
2019-05-28T22:03:39.432Z,62.90
2019-05-28T22:06:01.457Z,63.10
2019-05-28T22:08:22.707Z,63.60
2019-05-28T22:10:44.957Z,64.50
2019-05-28T22:13:18.224Z,63.60
2019-05-28T22:15:31.847Z,64.30
2019-05-28T22:17:53.099Z,64.80
2019-05-28T22:20:14.663Z,65.10
2019-05-28T22:22:35.898Z,64.50
2019-05-28T22:24:58.478Z,64.40
2019-05-28T22:27:19.777Z,64.70
2019-05-28T22:29:40.980Z,65.90
2019-05-28T22:32:02.852Z,65.20
2019-05-28T22:34:24.329Z,65.90
2019-05-28T22:36:45.595Z,66.20
2019-05-28T22:39:07.069Z,68.10
2019-05-28T22:41:28.413Z,66.60
2019-05-28T22:43:49.614Z,65.50
2019-05-28T22:46:10.855Z,65.90
2019-05-28T22:48:32.138Z,65.90
2019-05-28T22:50:53.342Z,65.10
2019-05-28T22:53:14.557Z,65.50
2019-05-28T22:55:35.781Z,66.00
2019-05-28T22:57:58.091Z,66.00
2019-05-28T23:00:19.799Z,66.70
2019-05-28T23:02:41.256Z,66.50
2019-05-28T23:05:05.155Z,67.00
2019-05-28T23:07:26.523Z,67.50
2019-05-28T23:09:47.727Z,68.10
2019-05-28T23:12:10.054Z,67.20
2019-05-28T23:14:31.436Z,68.30
2019-05-28T23:16:52.641Z,68.20
2019-05-28T23:19:14.529Z,68.10
2019-05-28T23:21:35.770Z,67.90
2019-05-28T23:23:57.042Z,67.80
2019-05-28T23:26:18.321Z,67.60
2019-05-28T23:28:40.550Z,68.30
2019-05-28T23:31:01.861Z,68.70
2019-05-28T23:33:23.145Z,69.30
2019-05-28T23:35:44.322Z,69.00
2019-05-28T23:38:05.540Z,69.60
2019-05-28T23:40:26.728Z,70.80
2019-05-28T23:42:47.925Z,70.20
2019-05-28T23:45:11.841Z,71.80
2019-05-28T23:47:33.138Z,70.50
2019-05-28T23:49:54.340Z,69.50
2019-05-28T23:52:16.875Z,70.50
2019-05-28T23:54:38.337Z,70.00
2019-05-28T23:56:59.544Z,70.50
2019-05-28T23:59:20.746Z,69.40
